Time;durP1;ratioP1;P1;durP2;ratioP2;P2;SDS_P1;SDS_P2;PMS_P1;PMS_P2;Temp;Humidity;BMP_temperature;BMP_pressure;BME280_temperature;BME280_humidity;BME280_pressure;Samples;Min_cycle;Max_cycle;Signal;HPM_P1;HPM_P2
2024/03/08 00:01:07;;;;;;;22.70;14.70;;;;;;;4.75;59.27;99692.55;232349;204;138292;-56
2024/03/08 00:06:21;;;;;;;21.40;13.60;;;;;;;4.73;59.40;99698.59;232412;201;138591;-56
2024/03/08 00:11:25;;;;;;;20.40;15.10;;;;;;;4.71;59.02;99697.41;232286;201;153803;-56
2024/03/08 00:16:29;;;;;;;21.00;14.30;;;;;;;4.70;58.92;99691.98;232310;198;138816;-56
2024/03/08 00:21:32;;;;;;;20.80;14.10;;;;;;;4.72;58.78;99691.77;232417;200;137452;-55
2024/03/08 00:26:35;;;;;;;22.30;15.40;;;;;;;4.70;59.00;99687.27;232352;204;153815;-57
2024/03/08 00:31:38;;;;;;;21.90;14.30;;;;;;;4.70;59.16;99683.22;232337;200;138279;-57
2024/03/08 00:36:41;;;;;;;24.60;14.80;;;;;;;4.63;59.28;99680.23;232492;203;138414;-56
2024/03/08 00:41:44;;;;;;;19.40;14.50;;;;;;;4.59;59.19;99676.84;232260;204;153263;-56
2024/03/08 00:46:48;;;;;;;19.20;13.80;;;;;;;4.59;59.28;99676.30;232479;203;137894;-56
2024/03/08 00:51:54;;;;;;;20.70;14.10;;;;;;;4.58;59.28;99671.59;232347;200;138087;-53
2024/03/08 00:56:57;;;;;;;21.00;13.60;;;;;;;4.60;59.11;99664.36;232350;204;154187;-54
2024/03/08 01:02:01;;;;;;;19.90;13.60;;;;;;;4.60;59.03;99662.94;232374;204;138785;-51
2024/03/08 01:07:05;;;;;;;22.10;13.80;;;;;;;4.60;59.26;99657.81;232376;204;137615;-53
2024/03/08 01:12:10;;;;;;;21.10;14.70;;;;;;;4.62;59.20;99660.06;232302;201;153622;-55
2024/03/08 01:17:14;;;;;;;19.80;15.10;;;;;;;4.61;58.92;99656.92;232503;204;138080;-54
2024/03/08 01:22:17;;;;;;;23.20;15.40;;;;;;;4.62;58.71;99651.09;232301;204;143062;-55
2024/03/08 01:27:20;;;;;;;23.10;16.00;;;;;;;4.62;58.62;99646.52;232406;204;154631;-55
2024/03/08 01:32:23;;;;;;;23.70;16.00;;;;;;;4.63;58.68;99641.04;232271;201;137420;-57
2024/03/08 01:37:26;;;;;;;24.80;16.50;;;;;;;4.63;58.37;99637.19;232293;197;137964;-57
2024/03/08 01:42:30;;;;;;;22.00;15.60;;;;;;;4.61;58.26;99631.61;232253;199;153674;-55
2024/03/08 01:47:34;;;;;;;25.30;15.70;;;;;;;4.58;58.50;99631.88;232520;200;138584;-53
2024/03/08 01:52:37;;;;;;;20.80;13.30;;;;;;;4.59;58.32;99627.82;232552;204;138569;-55
2024/03/08 01:57:40;;;;;;;17.00;12.30;;;;;;;4.61;57.84;99633.55;232450;201;153140;-55
2024/03/08 02:02:46;;;;;;;23.60;13.70;;;;;;;4.54;57.96;99622.31;232473;204;139032;-55
2024/03/08 02:07:49;;;;;;;;;;;;;;;4.51;57.79;99618.36;232634;200;137123;-55
2024/03/08 02:12:53;;;;;;;18.10;12.90;;;;;;;4.46;58.02;99616.23;232430;196;153059;-56
2024/03/08 02:17:56;;;;;;;22.90;13.90;;;;;;;4.44;57.98;99609.59;232320;198;138452;-56
2024/03/08 02:22:59;;;;;;;20.10;13.70;;;;;;;4.43;58.24;99610.15;232219;200;138769;-55
2024/03/08 02:28:03;;;;;;;19.10;13.90;;;;;;;4.42;58.33;99606.83;232452;197;153769;-58
2024/03/08 02:33:09;;;;;;;21.60;15.00;;;;;;;4.41;58.59;99609.33;232593;197;138293;-58
2024/03/08 02:38:16;;;;;;;24.60;15.20;;;;;;;4.42;58.70;99604.56;232586;204;138079;-56
2024/03/08 02:43:24;;;;;;;23.00;16.00;;;;;;;4.41;58.42;99598.98;232421;204;153115;-57
2024/03/08 02:48:28;;;;;;;23.70;15.60;;;;;;;4.42;58.43;99603.15;232252;197;138148;-57
2024/03/08 02:53:31;;;;;;;25.60;15.80;;;;;;;4.42;58.51;99602.98;232489;204;137196;-54
2024/03/08 02:58:34;;;;;;;24.90;16.40;;;;;;;4.37;58.29;99609.80;232576;204;154370;-53
2024/03/08 03:03:38;;;;;;;22.30;14.40;;;;;;;4.35;58.25;99605.11;232250;204;138518;-57
2024/03/08 03:08:43;;;;;;;23.80;14.80;;;;;;;4.34;58.48;99608.11;232372;204;137902;-56
2024/03/08 03:13:48;;;;;;;22.40;15.10;;;;;;;4.39;58.34;99609.05;232505;197;153305;-55
2024/03/08 03:18:51;;;;;;;22.10;15.00;;;;;;;4.38;58.46;99610.46;232378;204;137607;-57
2024/03/08 03:23:54;;;;;;;20.90;14.70;;;;;;;4.39;58.67;99611.86;232490;204;138014;-57
2024/03/08 03:29:00;;;;;;;21.10;14.30;;;;;;;4.38;58.42;99609.23;232393;204;152992;-58
2024/03/08 03:34:03;;;;;;;;;;;;;;;4.35;58.45;99611.06;232561;200;138371;-58
2024/03/08 03:39:10;;;;;;;22.90;14.90;;;;;;;4.33;58.50;99609.21;232239;204;138644;-54
2024/03/08 03:44:14;;;;;;;25.80;15.70;;;;;;;4.32;58.65;99611.19;232331;197;153330;-56
2024/03/08 03:49:17;;;;;;;22.50;15.90;;;;;;;4.34;58.89;99605.48;232344;204;138217;-57
2024/03/08 03:54:21;;;;;;;23.80;15.80;;;;;;;4.33;58.82;99611.65;232450;204;137283;-57
2024/03/08 03:59:24;;;;;;;24.40;16.40;;;;;;;4.29;58.76;99607.40;232476;201;153020;-57
2024/03/08 04:04:27;;;;;;;19.90;14.80;;;;;;;4.26;59.04;99602.01;232247;198;139386;-55
2024/03/08 04:09:31;;;;;;;22.20;14.10;;;;;;;4.24;59.21;99600.64;232409;204;138256;-56
2024/03/08 04:14:34;;;;;;;21.50;14.60;;;;;;;4.23;59.10;99596.31;232454;204;153151;-57
2024/03/08 04:19:39;;;;;;;19.20;13.90;;;;;;;4.24;59.12;99597.31;232440;201;142917;-57
2024/03/08 04:24:44;;;;;;;20.70;14.50;;;;;;;4.25;59.04;99596.26;232339;196;138006;-55
2024/03/08 04:29:47;;;;;;;24.90;15.60;;;;;;;4.28;59.04;99601.09;232257;197;153713;-57
2024/03/08 04:34:51;;;;;;;27.30;16.00;;;;;;;4.34;59.13;99603.20;232357;201;138528;-56
2024/03/08 04:39:54;;;;;;;25.90;15.90;;;;;;;4.38;59.06;99604.52;232369;196;137257;-57
2024/03/08 04:44:58;;;;;;;22.70;15.70;;;;;;;4.35;59.12;99603.35;232520;200;154814;-54
2024/03/08 04:50:02;;;;;;;24.20;16.40;;;;;;;4.36;59.11;99604.91;232284;204;138932;-57
2024/03/08 04:55:05;;;;;;;24.50;15.80;;;;;;;4.33;59.06;99612.90;232237;201;138347;-56
2024/03/08 05:00:11;;;;;;;22.20;15.20;;;;;;;4.32;58.78;99616.27;232408;204;165645;-55
2024/03/08 05:05:15;;;;;;;23.90;15.70;;;;;;;4.21;58.99;99620.75;232120;198;138438;-54
2024/03/08 05:10:18;;;;;;;25.00;15.80;;;;;;;4.22;59.36;99619.33;232368;204;138859;-58
2024/03/08 05:15:21;;;;;;;209.70;137.90;;;;;;;4.26;59.81;99621.33;232368;204;154525;-57
2024/03/08 05:20:25;;;;;;;29.30;19.60;;;;;;;4.33;59.91;99621.17;232488;204;139099;-56
2024/03/08 05:25:28;;;;;;;25.70;17.10;;;;;;;4.32;59.89;99617.14;232302;197;139166;-54
2024/03/08 05:30:32;;;;;;;124.20;87.30;;;;;;;4.32;59.92;99614.16;232421;204;153429;-55
2024/03/08 05:35:36;;;;;;;27.20;17.80;;;;;;;4.36;60.54;99612.12;232541;203;137681;-55
2024/03/08 05:40:39;;;;;;;26.10;17.20;;;;;;;4.30;59.69;99614.38;232481;204;139219;-53
2024/03/08 05:45:42;;;;;;;25.60;16.30;;;;;;;4.27;59.71;99614.27;232416;204;154259;-53
2024/03/08 05:50:45;;;;;;;25.30;16.70;;;;;;;4.22;59.58;99618.82;232594;204;138327;-54
2024/03/08 05:55:49;;;;;;;27.40;16.80;;;;;;;4.11;59.76;99621.05;232474;204;137932;-55
2024/03/08 06:00:52;;;;;;;72.30;53.20;;;;;;;4.09;60.50;99622.87;232510;201;154875;-51
2024/03/08 06:05:56;;;;;;;532.70;370.00;;;;;;;4.21;60.92;99621.47;232428;204;138442;-54
2024/03/08 06:11:02;;;;;;;404.30;276.70;;;;;;;4.22;60.49;99625.48;232428;204;138555;-53
2024/03/08 06:16:08;;;;;;;25.30;17.80;;;;;;;4.30;61.43;99631.05;232402;203;153149;-52
2024/03/08 06:21:12;;;;;;;31.60;17.50;;;;;;;4.35;59.56;99629.35;232561;203;138316;-52
2024/03/08 06:26:15;;;;;;;25.40;17.70;;;;;;;4.27;59.58;99632.20;232208;197;139110;-54
2024/03/08 06:31:19;;;;;;;28.70;16.40;;;;;;;4.22;59.49;99629.70;232335;198;153995;-54
2024/03/08 06:36:23;;;;;;;29.00;16.50;;;;;;;4.19;59.56;99631.91;232480;201;137893;-54
2024/03/08 06:41:27;;;;;;;30.10;17.20;;;;;;;4.16;59.79;99631.63;232227;201;138143;-54
2024/03/08 06:46:30;;;;;;;29.60;17.60;;;;;;;4.18;59.51;99631.03;232383;200;153263;-53
2024/03/08 06:51:33;;;;;;;31.40;17.20;;;;;;;4.15;59.26;99625.66;232427;200;138263;-55
2024/03/08 06:56:36;;;;;;;31.80;17.30;;;;;;;4.14;59.63;99627.44;232426;204;137917;-53
2024/03/08 07:01:40;;;;;;;37.10;22.40;;;;;;;4.19;59.54;99629.42;232343;204;154370;-54
2024/03/08 07:06:43;;;;;;;78.20;42.60;;;;;;;4.28;59.74;99630.77;232338;204;138182;-55
2024/03/08 07:11:46;;;;;;;39.50;21.30;;;;;;;4.38;60.10;99637.52;232395;203;139181;-52
2024/03/08 07:16:51;;;;;;;35.80;22.50;;;;;;;4.37;59.45;99641.41;232149;198;153342;-55
2024/03/08 07:21:55;;;;;;;31.90;21.50;;;;;;;4.35;58.78;99635.85;232235;201;142321;-55
2024/03/08 07:26:59;;;;;;;39.70;23.10;;;;;;;4.32;58.93;99633.81;232431;201;139087;-55
2024/03/08 07:37:36;;;;;;;54.30;25.50;;;;;;;4.36;58.28;99630.91;232097;197;138283;-50
2024/03/08 07:42:39;;;;;;;43.20;24.40;;;;;;;4.39;58.40;99635.91;231908;204;139305;-52
2024/03/08 07:47:43;;;;;;;43.20;27.30;;;;;;;4.38;58.30;99632.61;232332;204;154453;-52
2024/03/08 07:52:46;;;;;;;41.30;23.70;;;;;;;4.42;58.21;99630.55;232366;201;138073;-49
2024/03/08 07:57:50;;;;;;;37.80;22.60;;;;;;;4.46;58.06;99627.13;232317;204;138387;-51
2024/03/08 08:02:53;;;;;;;37.00;22.50;;;;;;;4.47;58.20;99623.91;232370;204;154512;-50
2024/03/08 08:07:57;;;;;;;43.10;25.00;;;;;;;4.53;58.09;99615.52;232391;201;138395;-53
2024/03/08 08:13:04;;;;;;;41.30;25.30;;;;;;;4.59;57.83;99608.84;232365;204;138379;-51
2024/03/08 08:18:09;;;;;;;40.50;26.70;;;;;;;4.65;57.75;99608.66;232165;201;153742;-50
2024/03/08 08:23:13;;;;;;;43.10;26.70;;;;;;;4.74;57.89;99606.27;232111;201;138111;-49
2024/03/08 08:28:17;;;;;;;40.20;25.60;;;;;;;4.83;57.13;99610.94;232389;200;138310;-53
2024/03/08 08:33:21;;;;;;;37.10;24.70;;;;;;;4.89;57.47;99610.60;232475;200;153709;-50
2024/03/08 08:38:24;;;;;;;37.20;26.00;;;;;;;4.98;57.78;99613.83;232363;200;137404;-51
2024/03/08 08:43:28;;;;;;;37.90;23.80;;;;;;;5.06;57.00;99610.25;232396;204;138333;-49
2024/03/08 08:48:31;;;;;;;33.40;22.80;;;;;;;5.11;56.66;99613.98;232420;197;153008;-53
2024/03/08 08:53:35;;;;;;;34.20;22.00;;;;;;;5.16;56.14;99619.63;232426;200;141666;-49
2024/03/08 08:58:44;;;;;;;31.40;21.30;;;;;;;5.10;55.93;99620.85;232135;197;139143;-47
2024/03/08 09:03:47;;;;;;;32.70;20.90;;;;;;;5.10;55.92;99617.70;232338;204;153996;-49
2024/03/08 09:08:51;;;;;;;248.70;156.90;;;;;;;5.21;56.20;99611.91;232374;200;138120;-48
2024/03/08 09:13:54;;;;;;;33.90;23.30;;;;;;;5.35;56.47;99610.04;232476;200;138767;-52
2024/03/08 09:18:57;;;;;;;34.20;21.20;;;;;;;5.40;55.27;99610.23;232343;196;153401;-50
2024/03/08 09:24:01;;;;;;;31.00;20.00;;;;;;;5.40;55.47;99607.42;232263;200;137927;-48
2024/03/08 09:29:06;;;;;;;29.00;19.80;;;;;;;5.44;55.46;99606.26;232400;203;137666;-51
2024/03/08 09:34:10;;;;;;;251.50;157.10;;;;;;;5.64;55.72;99594.70;232284;201;154174;-50
2024/03/08 09:39:23;;;;;;;33.60;22.50;;;;;;;5.77;55.14;99591.44;232345;204;137815;-52
2024/03/08 09:44:29;;;;;;;28.50;20.10;;;;;;;5.82;55.02;99590.05;232365;201;138811;-50
2024/03/08 09:49:32;;;;;;;28.60;19.00;;;;;;;5.91;55.04;99587.64;232350;204;153490;-53
2024/03/08 09:54:37;;;;;;;24.10;17.60;;;;;;;5.97;54.57;99586.05;232293;201;138014;-51
2024/03/08 09:59:46;;;;;;;27.70;17.70;;;;;;;5.98;53.83;99586.20;232169;204;137939;-50
2024/03/08 10:04:53;;;;;;;26.40;18.40;;;;;;;5.98;54.12;99582.48;232270;200;153452;-52
2024/03/08 10:09:56;;;;;;;27.70;18.60;;;;;;;6.11;54.43;99575.50;232065;204;137206;-50
2024/03/08 10:15:00;;;;;;;28.50;18.50;;;;;;;6.50;54.19;99567.41;231967;204;137688;-51
2024/03/08 10:20:14;;;;;;;29.50;17.50;;;;;;;6.86;53.86;99570.64;232146;204;154225;-49
2024/03/08 10:25:18;;;;;;;25.50;16.90;;;;;;;7.23;53.05;99562.31;232384;204;140230;-50
2024/03/08 10:30:21;;;;;;;32.20;20.10;;;;;;;7.63;52.61;99559.97;232306;201;137631;-47
2024/03/08 10:35:26;;;;;;;29.40;18.20;;;;;;;7.99;51.21;99560.76;232183;201;154023;-49
2024/03/08 10:40:30;;;;;;;29.80;18.80;;;;;;;8.19;50.04;99553.49;232234;204;138383;-51
2024/03/08 10:45:36;;;;;;;32.80;18.90;;;;;;;8.43;50.23;99549.45;232245;200;137784;-49
2024/03/08 10:50:40;;;;;;;29.40;18.80;;;;;;;8.61;49.35;99546.69;231775;201;154863;-50
2024/03/08 10:55:45;;;;;;;33.80;19.60;;;;;;;8.64;48.34;99531.91;232385;204;138357;-47
2024/03/08 11:00:53;;;;;;;26.90;17.80;;;;;;;8.69;48.05;99525.63;232343;197;138130;-48
2024/03/08 11:05:56;;;;;;;28.20;19.00;;;;;;;8.82;48.30;99521.16;232144;201;154028;-47
2024/03/08 11:11:00;;;;;;;32.00;19.60;;;;;;;8.98;48.59;99517.03;232344;204;137857;-51
2024/03/08 11:16:09;;;;;;;29.80;19.50;;;;;;;9.14;48.11;99512.91;232245;203;137652;-51
2024/03/08 11:21:12;;;;;;;26.50;19.00;;;;;;;9.41;47.84;99507.49;232145;199;153149;-49
2024/03/08 11:26:20;;;;;;;23.90;18.10;;;;;;;9.53;48.31;99504.09;232263;204;137200;-51
2024/03/08 11:31:26;;;;;;;28.50;19.20;;;;;;;9.58;46.88;99502.55;232373;204;138654;-49
2024/03/08 11:36:31;;;;;;;24.40;18.10;;;;;;;9.73;47.07;99494.73;232477;204;155210;-51
2024/03/08 11:41:35;;;;;;;28.10;19.20;;;;;;;9.80;47.18;99487.64;232382;204;138056;-53
2024/03/08 11:46:42;;;;;;;34.80;19.00;;;;;;;9.93;46.20;99484.83;232496;204;138372;-49
2024/03/08 11:51:45;;;;;;;27.00;19.20;;;;;;;10.12;46.67;99481.88;232484;204;154447;-48
2024/03/08 11:56:52;;;;;;;26.50;18.30;;;;;;;10.42;46.39;99482.56;231961;204;138787;-47
2024/03/08 12:02:04;;;;;;;31.40;19.70;;;;;;;10.85;45.48;99477.23;232364;203;138706;-49
2024/03/08 12:07:11;;;;;;;30.10;18.60;;;;;;;11.07;44.11;99466.56;232397;203;153256;-52
2024/03/08 12:12:15;;;;;;;25.40;17.50;;;;;;;11.28;43.45;99458.60;232214;204;141579;-53
2024/03/08 12:17:18;;;;;;;26.20;18.80;;;;;;;11.47;43.24;99449.70;232461;203;141969;-51
2024/03/08 12:22:26;;;;;;;27.20;18.70;;;;;;;11.69;43.82;99447.13;232450;201;154105;-52
2024/03/08 12:27:29;;;;;;;26.20;17.00;;;;;;;11.79;43.49;99445.06;232514;204;139228;-54
2024/03/08 12:32:32;;;;;;;30.80;19.20;;;;;;;11.69;43.25;99444.45;232450;201;138758;-55
2024/03/08 12:37:37;;;;;;;24.90;18.50;;;;;;;11.66;43.85;99438.59;232432;196;153694;-54
2024/03/08 12:42:40;;;;;;;25.60;18.40;;;;;;;11.57;42.78;99436.30;232454;200;137435;-49
2024/03/08 12:47:44;;;;;;;26.80;18.90;;;;;;;11.40;43.27;99433.94;232315;196;138900;-54
2024/03/08 12:52:48;;;;;;;25.30;18.70;;;;;;;11.35;44.23;99432.76;232561;200;154666;-54
2024/03/08 12:57:55;;;;;;;27.50;19.80;;;;;;;11.40;44.56;99423.96;232489;201;138530;-54
2024/03/08 13:02:59;;;;;;;26.10;19.70;;;;;;;11.47;44.30;99413.59;232511;204;140337;-52
2024/03/08 13:08:02;;;;;;;24.80;18.40;;;;;;;11.54;44.21;99408.88;232365;197;154622;-54
2024/03/08 13:13:06;;;;;;;25.20;19.00;;;;;;;11.62;43.98;99404.86;231975;200;138769;-54
2024/03/08 13:18:10;;;;;;;26.30;19.20;;;;;;;11.81;43.19;99397.70;232360;203;140818;-52
2024/03/08 13:23:14;;;;;;;33.30;19.80;;;;;;;11.87;42.81;99390.20;232474;201;153464;-54
2024/03/08 13:28:22;;;;;;;29.90;18.00;;;;;;;11.93;42.38;99385.24;232188;197;138323;-51
2024/03/08 13:33:27;;;;;;;29.10;19.40;;;;;;;12.05;42.16;99384.45;230987;204;138917;-53
2024/03/08 13:38:32;;;;;;;27.60;19.00;;;;;;;12.10;42.02;99380.11;230808;200;154308;-53
2024/03/08 13:43:37;;;;;;;25.20;18.20;;;;;;;12.17;42.50;99370.92;231771;201;138713;-53
2024/03/08 13:48:41;;;;;;;30.90;19.20;;;;;;;12.03;42.62;99370.38;232575;201;139214;-51
2024/03/08 13:53:44;;;;;;;28.50;19.30;;;;;;;11.64;42.31;99367.45;232366;201;153315;-52
2024/03/08 13:58:47;;;;;;;76.10;45.00;;;;;;;11.33;43.63;99366.27;232508;201;138914;-56
2024/03/08 14:03:53;;;;;;;28.80;19.30;;;;;;;11.04;44.10;99365.35;231649;204;138710;-54
2024/03/08 14:08:57;;;;;;;29.50;17.60;;;;;;;10.76;44.45;99368.02;230898;204;153731;-51
2024/03/08 14:14:01;;;;;;;31.20;18.90;;;;;;;10.60;44.77;99365.95;231110;204;139577;-53
2024/03/08 14:19:05;;;;;;;29.40;19.40;;;;;;;10.38;45.12;99359.02;231480;201;140047;-52
2024/03/08 14:24:08;;;;;;;34.30;19.60;;;;;;;10.26;45.43;99360.19;232465;204;154338;-51
2024/03/08 14:29:12;;;;;;;29.50;18.40;;;;;;;10.15;45.91;99355.64;232334;198;140394;-49
2024/03/08 14:34:15;;;;;;;22.20;16.50;;;;;;;10.03;46.44;99355.95;232142;200;141302;-52
2024/03/08 14:39:21;;;;;;;29.30;19.00;;;;;;;9.88;46.20;99351.83;231583;201;153366;-54
2024/03/08 14:44:25;;;;;;;29.20;19.10;;;;;;;9.77;46.18;99349.05;231112;200;138739;-54
2024/03/08 14:49:29;;;;;;;30.80;20.30;;;;;;;9.68;46.50;99345.77;230982;201;138733;-56
2024/03/08 14:54:32;;;;;;;27.80;17.30;;;;;;;9.62;46.64;99351.46;231078;204;152912;-52
2024/03/08 14:59:38;;;;;;;27.70;17.40;;;;;;;9.51;46.87;99347.43;232469;200;138565;-51
2024/03/08 15:04:41;;;;;;;26.10;17.90;;;;;;;9.44;47.28;99342.64;232000;201;138663;-52
2024/03/08 15:09:44;;;;;;;28.50;19.10;;;;;;;9.40;47.23;99341.08;231512;204;153384;-50
2024/03/08 15:14:48;;;;;;;256.70;151.80;;;;;;;9.36;48.32;99335.09;231100;204;139174;-49
2024/03/08 15:19:53;;;;;;;36.90;23.10;;;;;;;9.31;48.17;99331.81;231494;204;138897;-53
2024/03/08 15:24:58;;;;;;;31.80;19.30;;;;;;;9.23;47.92;99327.84;231778;204;152900;-53
2024/03/08 15:30:03;;;;;;;27.40;18.50;;;;;;;9.14;48.20;99328.29;232215;196;138629;-53
2024/03/08 15:35:08;;;;;;;28.70;17.60;;;;;;;9.06;48.47;99326.41;231821;204;154295;-48
2024/03/08 15:40:22;;;;;;;28.10;17.90;;;;;;;8.97;48.52;99323.11;231141;204;154040;-51
2024/03/08 15:45:29;;;;;;;28.70;18.60;;;;;;;8.84;48.32;99321.83;232379;204;138112;-51
2024/03/08 15:50:35;;;;;;;29.10;18.80;;;;;;;8.79;48.20;99319.27;232148;203;139089;-51
2024/03/08 15:55:40;;;;;;;28.20;18.40;;;;;;;8.66;48.60;99321.69;232322;200;154027;-49
2024/03/08 16:00:46;;;;;;;28.20;18.70;;;;;;;8.61;48.73;99326.90;232574;204;137179;-49
2024/03/08 16:05:50;;;;;;;30.30;17.00;;;;;;;8.52;48.86;99323.98;231677;201;138752;-56
2024/03/08 16:10:55;;;;;;;25.80;18.00;;;;;;;8.40;49.18;99327.20;230872;200;153410;-56
2024/03/08 16:15:59;;;;;;;28.90;19.10;;;;;;;8.30;49.72;99327.83;232507;204;139790;-54
2024/03/08 16:21:03;;;;;;;35.30;18.40;;;;;;;8.19;49.77;99327.48;232227;204;138624;-54
2024/03/08 16:26:08;;;;;;;32.10;19.50;;;;;;;8.14;49.85;99328.75;232339;201;154230;-55
2024/03/08 16:31:14;;;;;;;;;;;;;;;8.08;49.98;99326.56;232508;203;137459;-55
2024/03/08 16:36:18;;;;;;;25.90;17.90;;;;;;;7.94;50.49;99328.14;231840;201;138669;-53
2024/03/08 16:41:21;;;;;;;34.50;18.80;;;;;;;7.84;50.90;99327.52;231132;203;154617;-56
2024/03/08 16:46:25;;;;;;;43.70;19.80;;;;;;;7.73;51.32;99324.30;232549;204;138252;-52
2024/03/08 16:51:35;;;;;;;39.30;20.00;;;;;;;7.65;51.68;99325.23;232183;204;138634;-52
2024/03/08 16:56:38;;;;;;;30.20;18.50;;;;;;;7.60;51.96;99326.34;232378;196;154704;-52
2024/03/08 17:01:41;;;;;;;37.70;21.10;;;;;;;7.54;52.06;99328.52;232062;204;138752;-53
2024/03/08 17:06:45;;;;;;;46.90;20.10;;;;;;;7.50;52.34;99332.94;232339;204;139147;-55
2024/03/08 17:11:50;;;;;;;44.90;21.20;;;;;;;7.43;52.66;99334.70;232310;201;153353;-53
2024/03/08 17:16:57;;;;;;;39.40;20.80;;;;;;;7.35;53.08;99337.33;232463;201;138497;-54
2024/03/08 17:22:03;;;;;;;35.60;21.40;;;;;;;7.29;53.41;99335.13;232298;197;138227;-54
2024/03/08 17:27:06;;;;;;;36.20;21.40;;;;;;;7.15;53.63;99332.36;232469;198;153053;-58
2024/03/08 17:32:10;;;;;;;49.30;21.50;;;;;;;7.03;53.97;99335.20;232456;204;138099;-55
2024/03/08 17:37:14;;;;;;;40.10;21.80;;;;;;;6.96;54.20;99333.74;232214;203;138641;-57
2024/03/08 17:42:18;;;;;;;51.10;22.80;;;;;;;6.95;54.36;99332.54;232044;201;153011;-56
2024/03/08 17:47:22;;;;;;;44.10;23.00;;;;;;;6.88;54.58;99329.84;232363;201;137228;-56
2024/03/08 17:52:25;;;;;;;43.40;21.30;;;;;;;6.81;54.75;99331.33;232503;197;137503;-56
2024/03/08 17:57:28;;;;;;;45.60;22.60;;;;;;;6.72;55.01;99330.85;232306;204;153668;-56
2024/03/08 18:02:31;;;;;;;69.80;22.60;;;;;;;6.69;55.24;99330.46;232389;201;138149;-57
2024/03/08 18:07:35;;;;;;;63.10;23.30;;;;;;;6.57;55.49;99332.88;232276;204;139707;-55
2024/03/08 18:12:38;;;;;;;70.40;26.80;;;;;;;6.50;56.02;99328.77;232254;196;153044;-55
2024/03/08 18:17:41;;;;;;;55.40;25.20;;;;;;;6.44;56.30;99325.86;232096;198;138372;-54
2024/03/08 18:22:45;;;;;;;54.90;26.50;;;;;;;6.33;56.64;99325.38;231925;200;138819;-56
2024/03/08 18:27:51;;;;;;;64.90;25.80;;;;;;;6.28;56.85;99321.17;232337;204;153612;-56
2024/03/08 18:32:54;;;;;;;57.30;25.50;;;;;;;6.26;56.86;99318.61;232300;204;138174;-56
2024/03/08 18:37:58;;;;;;;69.20;31.10;;;;;;;6.30;57.95;99319.17;231364;204;138625;-54
2024/03/08 18:43:02;;;;;;;53.40;25.60;;;;;;;6.35;57.33;99316.31;231034;200;153582;-54
2024/03/08 18:48:06;;;;;;;53.40;25.60;;;;;;;6.25;57.34;99317.98;231454;197;138644;-53
2024/03/08 18:53:10;;;;;;;62.20;26.40;;;;;;;6.18;57.29;99313.50;231407;204;140901;-54
2024/03/08 18:58:15;;;;;;;57.40;26.40;;;;;;;6.09;57.56;99312.94;232418;196;153814;-55
2024/03/08 19:03:27;;;;;;;63.90;26.80;;;;;;;6.00;58.00;99316.85;232478;204;137311;-54
2024/03/08 19:08:32;;;;;;;64.70;27.40;;;;;;;5.86;58.21;99322.45;232400;201;138198;-54
2024/03/08 19:13:36;;;;;;;57.90;26.70;;;;;;;5.78;58.60;99320.63;231531;204;153160;-53
2024/03/08 19:18:40;;;;;;;61.50;28.00;;;;;;;5.71;58.69;99320.18;230764;204;137952;-52
2024/03/08 19:23:44;;;;;;;59.20;26.80;;;;;;;5.62;58.91;99318.24;231573;204;138722;-53
2024/03/08 19:28:47;;;;;;;69.10;27.70;;;;;;;5.54;59.26;99313.81;231956;204;154162;-55
2024/03/08 19:33:51;;;;;;;70.40;28.90;;;;;;;5.45;59.69;99314.30;232540;204;137515;-54
2024/03/08 19:38:54;;;;;;;83.80;33.10;;;;;;;5.41;60.33;99314.27;231608;204;138736;-57
2024/03/08 19:44:02;;;;;;;83.50;31.30;;;;;;;5.40;60.30;99316.59;230808;196;155477;-56
2024/03/08 19:49:07;;;;;;;63.10;32.20;;;;;;;5.34;60.23;99316.98;231949;204;142064;-56
2024/03/08 19:54:14;;;;;;;55.80;30.20;;;;;;;5.38;61.11;99316.16;232409;204;138207;-54
2024/03/08 19:59:17;;;;;;;72.60;34.30;;;;;;;5.37;60.42;99313.91;232401;203;154603;-56
2024/03/08 20:04:20;;;;;;;62.90;35.40;;;;;;;5.25;60.44;99307.46;232495;201;138186;-55
2024/03/08 20:09:25;;;;;;;57.90;32.90;;;;;;;5.19;60.65;99307.16;232559;197;137923;-55
2024/03/08 20:14:30;;;;;;;278.10;121.70;;;;;;;5.28;62.99;99307.54;232275;198;153884;-57
2024/03/08 20:19:33;;;;;;;93.00;43.80;;;;;;;5.42;61.83;99307.00;232444;204;138580;-56
2024/03/08 20:24:36;;;;;;;73.10;38.40;;;;;;;5.24;61.32;99304.35;232542;201;138630;-56
2024/03/08 20:29:40;;;;;;;75.80;39.10;;;;;;;5.10;61.44;99299.02;232551;200;154158;-54
2024/03/08 20:34:44;;;;;;;72.00;39.40;;;;;;;4.99;61.46;99298.21;232360;196;138211;-55
2024/03/08 20:39:48;;;;;;;72.30;39.90;;;;;;;4.86;61.65;99291.59;232375;204;138963;-56
2024/03/08 20:44:52;;;;;;;72.50;40.80;;;;;;;4.77;61.82;99286.67;231686;204;153178;-56
2024/03/08 20:49:55;;;;;;;89.10;42.20;;;;;;;4.67;61.87;99288.05;232325;196;138474;-55
2024/03/08 20:54:58;;;;;;;78.60;39.70;;;;;;;4.61;62.05;99290.20;231717;200;138689;-57
2024/03/08 21:00:02;;;;;;;77.30;43.30;;;;;;;4.55;62.07;99287.56;232527;204;154011;-57
2024/03/08 21:05:07;;;;;;;75.70;40.70;;;;;;;4.49;62.18;99283.92;232287;201;137437;-56
2024/03/08 21:10:14;;;;;;;75.10;41.60;;;;;;;4.43;62.32;99281.31;232385;204;137987;-55
2024/03/08 21:15:17;;;;;;;76.60;42.50;;;;;;;4.38;62.51;99277.96;232226;198;153894;-55
2024/03/08 21:20:22;;;;;;;599.10;446.00;;;;;;;4.33;63.12;99272.14;230970;204;141882;-56
2024/03/08 21:25:29;;;;;;;83.50;51.40;;;;;;;4.37;63.71;99270.24;231784;204;138811;-55
2024/03/08 21:30:33;;;;;;;81.70;45.70;;;;;;;4.36;63.03;99266.27;232368;197;152950;-55
2024/03/08 21:35:37;;;;;;;78.30;44.50;;;;;;;4.32;62.99;99257.98;232339;196;137701;-55
2024/03/08 21:40:41;;;;;;;80.30;42.80;;;;;;;4.27;62.91;99257.59;232420;204;138384;-56
2024/03/08 21:45:48;;;;;;;81.60;42.30;;;;;;;4.19;63.11;99254.18;231738;201;153743;-56
2024/03/08 21:50:51;;;;;;;411.60;260.30;;;;;;;4.10;64.53;99250.96;231027;204;138707;-55
2024/03/08 21:55:54;;;;;;;525.80;266.10;;;;;;;4.22;64.72;99252.30;230870;200;138765;-57
2024/03/08 22:00:58;;;;;;;101.30;52.90;;;;;;;4.09;63.25;99252.05;232224;201;152765;-57
2024/03/08 22:06:09;;;;;;;82.30;44.00;;;;;;;3.97;63.30;99249.63;232460;196;139392;-58
2024/03/08 22:11:14;;;;;;;81.50;45.20;;;;;;;3.94;63.48;99248.29;232377;204;139949;-56
2024/03/08 22:16:17;;;;;;;88.10;45.00;;;;;;;3.88;63.45;99242.16;232105;204;153854;-56
2024/03/08 22:21:20;;;;;;;81.90;44.90;;;;;;;3.80;63.72;99238.73;232162;204;138863;-56
2024/03/08 22:26:23;;;;;;;82.60;43.60;;;;;;;3.74;63.77;99239.08;232538;204;138335;-57
2024/03/08 22:31:28;;;;;;;88.90;45.30;;;;;;;3.62;63.83;99232.64;232137;196;153039;-56
2024/03/08 22:36:31;;;;;;;98.00;47.90;;;;;;;3.57;64.34;99230.31;231320;201;139114;-56
2024/03/08 22:41:36;;;;;;;89.30;48.70;;;;;;;3.51;64.57;99231.90;232372;197;138653;-55
2024/03/08 22:46:40;;;;;;;93.50;48.60;;;;;;;3.45;64.62;99228.59;232157;200;154189;-57
2024/03/08 22:51:43;;;;;;;94.30;48.80;;;;;;;3.37;64.89;99227.77;232296;204;138009;-54
2024/03/08 22:56:46;;;;;;;96.40;50.10;;;;;;;3.31;64.93;99226.89;232466;203;138973;-56
2024/03/08 23:01:52;;;;;;;103.30;53.20;;;;;;;3.27;65.15;99228.61;232383;204;153177;-56
2024/03/08 23:06:56;;;;;;;107.70;55.60;;;;;;;3.23;65.08;99222.23;232471;196;137744;-55
2024/03/08 23:11:59;;;;;;;116.10;56.70;;;;;;;3.23;65.31;99219.96;232417;196;138634;-57
2024/03/08 23:17:04;;;;;;;115.80;57.40;;;;;;;3.22;65.37;99218.23;232279;201;154370;-55
2024/03/08 23:22:11;;;;;;;130.90;57.90;;;;;;;3.18;65.49;99219.38;232302;204;138705;-57